Time;durP1;ratioP1;P1;durP2;ratioP2;P2;SDS_P1;SDS_P2;PMS_P1;PMS_P2;Temp;Humidity;BMP_temperature;BMP_pressure;BME280_temperature;BME280_humidity;BME280_pressure;Samples;Min_cycle;Max_cycle;Signal;HPM_P1;HPM_P2
2021/08/03 00:00:06;;;;;;;36.97;24.02;;;;;;;18.39;82.41;100862.31;5076374;28;20045;-61
2021/08/03 00:02:44;;;;;;;41.10;26.25;;;;;;;18.58;82.09;100860.41;5076041;28;20045;-60
2021/08/03 00:05:19;;;;;;;28.45;17.55;;;;;;;18.37;82.21;100861.84;5076088;28;20040;-60
2021/08/03 00:07:49;;;;;;;16.83;10.15;;;;;;;18.52;81.93;100859.06;5076296;28;20052;-60
2021/08/03 00:10:17;;;;;;;12.32;7.63;;;;;;;18.44;81.53;100860.09;5058096;28;20061;-60
2021/08/03 00:12:54;;;;;;;7.20;5.00;;;;;;;18.39;81.83;100871.50;5057532;28;20051;-60
2021/08/03 00:15:23;;;;;;;6.75;4.40;;;;;;;18.38;81.37;100863.47;5057904;28;20044;-60
2021/08/03 00:17:55;;;;;;;6.53;4.55;;;;;;;18.54;81.58;100869.84;5075047;28;20044;-60
2021/08/03 00:20:24;;;;;;;9.18;5.10;;;;;;;18.39;81.30;100859.50;5075708;28;20049;-60
2021/08/03 00:22:55;;;;;;;7.53;5.10;;;;;;;18.46;81.56;100849.34;5075653;28;20067;-59
2021/08/03 00:25:25;;;;;;;9.00;4.63;;;;;;;18.41;81.29;100849.63;5075500;28;20051;-60
2021/08/03 00:27:53;;;;;;;;;;;;;;;18.45;80.74;100844.13;5075683;28;20044;-59
2021/08/03 00:30:22;;;;;;;9.65;4.82;;;;;;;18.44;81.12;100839.75;5057806;28;19920;-62
2021/08/03 00:32:50;;;;;;;9.50;4.70;;;;;;;18.65;80.01;100843.84;5075201;28;20040;-60
2021/08/03 00:35:20;;;;;;;7.75;4.85;;;;;;;18.34;81.09;100843.84;5057742;28;20550;-61
2021/08/03 00:37:48;;;;;;;9.32;4.95;;;;;;;18.02;82.53;100841.47;5075302;28;20059;-60
2021/08/03 00:40:17;;;;;;;8.77;5.00;;;;;;;17.99;83.71;100840.22;5075492;28;20044;-60
2021/08/03 00:42:45;;;;;;;8.68;4.95;;;;;;;17.98;84.56;100842.19;5057068;28;20052;-59
2021/08/03 00:45:14;;;;;;;6.82;4.45;;;;;;;17.89;83.93;100833.19;5057224;28;20052;-59
2021/08/03 00:47:47;;;;;;;7.82;5.03;;;;;;;17.91;83.89;100827.25;5057162;28;20048;-59
2021/08/03 00:50:14;;;;;;;8.43;5.72;;;;;;;18.02;83.42;100819.16;5074969;28;20056;-60
2021/08/03 00:52:42;;;;;;;9.63;5.35;;;;;;;18.03;83.02;100829.16;5040912;28;20044;-59
2021/08/03 00:55:12;;;;;;;8.00;5.45;;;;;;;17.79;84.50;100828.16;5040961;28;20061;-60
2021/08/03 00:57:43;;;;;;;7.22;5.00;;;;;;;17.90;84.43;100831.22;5059570;28;20058;-60
2021/08/03 01:00:12;;;;;;;10.05;5.20;;;;;;;17.89;84.33;100824.84;5076936;28;20048;-60
2021/08/03 01:02:39;;;;;;;8.40;5.70;;;;;;;17.86;84.72;100827.53;5094760;28;20060;-60
2021/08/03 01:05:08;;;;;;;8.35;5.40;;;;;;;17.87;84.79;100821.59;5076626;28;20048;-60
2021/08/03 01:07:44;;;;;;;8.27;5.70;;;;;;;18.11;83.44;100815.03;5076964;28;20052;-60
2021/08/03 01:10:41;;;;;;;9.68;6.07;;;;;;;17.93;83.96;100819.34;5061181;28;20078;-60
2021/08/03 01:13:35;;;;;;;8.43;5.65;;;;;;;18.14;83.19;100816.28;5076686;28;20040;-60
2021/08/03 01:16:19;;;;;;;9.57;6.28;;;;;;;17.91;83.96;100816.94;5076673;28;20044;-60
2021/08/03 01:19:01;;;;;;;8.55;6.00;;;;;;;18.06;83.63;100814.50;5060186;28;20056;-60
2021/08/03 01:21:43;;;;;;;8.95;6.22;;;;;;;18.03;84.01;100810.44;5076970;28;20078;-61
2021/08/03 01:24:19;;;;;;;8.07;5.25;;;;;;;18.23;83.44;100805.75;5060271;28;20055;-61
2021/08/03 01:27:17;;;;;;;8.35;5.85;;;;;;;18.21;82.62;100803.31;5094426;28;20044;-60
2021/08/03 01:29:47;;;;;;;8.77;5.97;;;;;;;18.02;82.97;100803.25;5075863;28;20640;-60
2021/08/03 01:32:21;;;;;;;7.90;5.43;;;;;;;17.95;82.86;100794.72;5076640;28;20055;-61
2021/08/03 01:34:51;;;;;;;10.27;5.70;;;;;;;17.80;83.71;100796.34;5076271;28;20059;-60
2021/08/03 01:37:21;;;;;;;9.35;6.13;;;;;;;17.86;83.64;100794.91;5060005;28;20064;-60
2021/08/03 01:39:53;;;;;;;7.80;5.85;;;;;;;17.79;83.47;100791.94;5059933;28;20062;-60
2021/08/03 01:42:22;;;;;;;9.15;6.40;;;;;;;17.68;84.41;100788.06;5076177;28;20055;-60
2021/08/03 01:44:51;;;;;;;7.45;5.18;;;;;;;17.72;84.97;100790.94;5076421;28;20052;-62
2021/08/03 01:47:24;;;;;;;7.82;5.30;;;;;;;17.81;85.05;100789.59;5060101;28;20052;-60
2021/08/03 01:49:52;;;;;;;8.23;5.65;;;;;;;17.95;83.94;100778.81;5094535;28;20036;-59
2021/08/03 01:52:20;;;;;;;7.57;5.55;;;;;;;17.92;84.22;100782.31;5059894;28;20059;-59
2021/08/03 01:54:52;;;;;;;9.23;5.60;;;;;;;18.02;83.72;100783.75;5075926;28;20634;-61
2021/08/03 01:57:24;;;;;;;7.00;5.32;;;;;;;18.07;83.22;100783.47;5059726;28;20411;-60
2021/08/03 01:59:53;;;;;;;11.10;5.97;;;;;;;18.12;82.68;100782.38;5056335;28;20052;-61
2021/08/03 02:02:23;;;;;;;8.55;5.13;;;;;;;18.07;82.41;100782.66;5056045;28;20076;-61
2021/08/03 02:05:04;;;;;;;10.95;5.85;;;;;;;17.95;83.81;100789.97;5041190;28;20056;-59
2021/08/03 02:07:33;;;;;;;8.88;5.57;;;;;;;17.95;83.88;100786.34;5055902;28;20044;-60
2021/08/03 02:10:00;;;;;;;8.45;5.03;;;;;;;18.23;82.72;100791.78;5074011;28;20044;-61
2021/08/03 02:12:28;;;;;;;8.10;5.90;;;;;;;18.11;83.25;100794.69;5039103;28;20637;-60
2021/08/03 02:14:55;;;;;;;13.32;5.78;;;;;;;17.92;84.86;100801.03;5055709;28;20045;-59
2021/08/03 02:17:27;;;;;;;8.40;6.28;;;;;;;17.88;85.18;100800.94;5056027;28;20040;-59
2021/08/03 02:20:17;;;;;;;8.30;5.20;;;;;;;18.02;84.94;100805.22;5055961;28;20052;-59
2021/08/03 02:22:50;;;;;;;7.78;5.30;;;;;;;18.10;84.20;100807.03;5055887;28;20093;-59
2021/08/03 02:25:23;;;;;;;8.18;5.45;;;;;;;18.23;83.66;100805.75;5055970;28;20044;-60
2021/08/03 02:27:53;;;;;;;8.20;6.20;;;;;;;18.15;83.59;100801.97;5038907;28;20507;-60
2021/08/03 02:30:21;;;;;;;7.85;5.93;;;;;;;17.97;84.35;100800.75;5055676;28;20059;-60
2021/08/03 02:33:00;;;;;;;9.05;6.00;;;;;;;17.76;86.00;100797.44;5040027;28;20488;-60
2021/08/03 02:35:32;;;;;;;15.07;6.07;;;;;;;17.98;85.01;100802.34;5055770;28;20059;-60
2021/08/03 02:38:03;;;;;;;10.00;5.85;;;;;;;17.76;86.40;100797.44;5055697;28;20048;-60
2021/08/03 02:40:33;;;;;;;8.32;5.78;;;;;;;17.90;86.25;100790.22;5055641;28;20051;-59
2021/08/03 02:43:07;;;;;;;8.23;5.75;;;;;;;17.81;86.51;100786.81;5061022;28;20055;-60
2021/08/03 02:45:37;;;;;;;9.25;5.65;;;;;;;17.90;85.66;100781.84;5077918;28;20049;-61
2021/08/03 02:48:12;;;;;;;;;;;;;;;17.92;85.76;100784.31;5077831;28;20049;-59
2021/08/03 02:50:41;;;;;;;9.95;6.18;;;;;;;17.88;85.58;100787.00;5060565;28;19920;-59
2021/08/03 02:53:14;;;;;;;9.50;5.72;;;;;;;17.87;86.14;100778.97;5059966;28;20041;-60
2021/08/03 02:55:46;;;;;;;9.32;6.03;;;;;;;17.90;85.98;100784.63;5078730;28;20059;-62
2021/08/03 02:58:20;;;;;;;9.50;6.32;;;;;;;17.77;86.37;100788.69;5079615;28;20048;-60
2021/08/03 03:00:48;;;;;;;10.88;7.00;;;;;;;17.39;88.59;100793.22;5079084;28;20056;-60
2021/08/03 03:03:19;;;;;;;10.57;6.35;;;;;;;17.38;88.79;100792.41;5062515;28;20055;-60
2021/08/03 03:05:50;;;;;;;10.50;7.28;;;;;;;17.16;90.09;100787.44;5062422;28;20048;-60
2021/08/03 03:08:21;;;;;;;12.57;8.23;;;;;;;16.82;92.57;100788.84;5062611;28;20044;-61
2021/08/03 03:10:50;;;;;;;16.00;8.50;;;;;;;16.43;94.66;100783.25;5079079;28;20051;-60
2021/08/03 03:13:39;;;;;;;14.80;8.75;;;;;;;16.59;94.79;100778.63;5062407;28;20613;-60
2021/08/03 03:16:08;;;;;;;11.27;9.27;;;;;;;16.67;95.25;100774.88;5097173;28;20082;-59
2021/08/03 03:18:37;;;;;;;14.50;8.73;;;;;;;16.71;94.71;100770.25;5078913;28;20052;-60
2021/08/03 03:21:06;;;;;;;11.68;8.77;;;;;;;16.50;94.70;100780.72;5079093;28;20451;-61
2021/08/03 03:23:35;;;;;;;12.30;8.60;;;;;;;16.86;93.76;100773.06;5079006;28;20094;-59
2021/08/03 03:26:04;;;;;;;13.70;8.45;;;;;;;16.86;92.92;100761.94;5078813;28;20056;-59
2021/08/03 03:28:34;;;;;;;11.95;7.70;;;;;;;16.72;94.14;100766.28;5078677;28;20063;-60
2021/08/03 03:31:03;;;;;;;9.95;7.30;;;;;;;16.50;92.56;100764.03;5062488;28;20119;-60
2021/08/03 03:33:36;;;;;;;11.40;7.70;;;;;;;16.62;93.42;100762.03;5096753;28;20051;-60
2021/08/03 03:36:06;;;;;;;9.38;7.88;;;;;;;16.56;92.84;100771.00;5078567;28;20048;-60
2021/08/03 03:38:36;;;;;;;9.68;8.30;;;;;;;16.82;91.75;100763.81;5078803;28;20055;-59
2021/08/03 03:41:05;;;;;;;10.10;8.10;;;;;;;16.77;91.92;100764.06;5078055;28;20059;-60
2021/08/03 03:43:33;;;;;;;12.30;8.20;;;;;;;16.72;91.92;100772.66;5061844;28;20066;-60
2021/08/03 03:46:06;;;;;;;10.02;7.50;;;;;;;16.38;92.56;100775.97;5061985;28;20423;-60
2021/08/03 03:48:38;;;;;;;11.98;8.50;;;;;;;16.37;93.79;100779.13;5061771;28;20407;-59
2021/08/03 03:51:09;;;;;;;12.30;8.40;;;;;;;16.49;93.11;100771.56;5078498;28;20055;-60
2021/08/03 03:53:45;;;;;;;12.60;8.65;;;;;;;16.47;94.25;100775.88;5060862;28;20056;-60
2021/08/03 03:56:15;;;;;;;11.70;8.82;;;;;;;16.57;94.07;100767.84;5054202;28;20524;-61
2021/08/03 03:58:49;;;;;;;11.75;9.00;;;;;;;16.68;92.95;100768.16;5022216;28;20060;-60
2021/08/03 04:01:24;;;;;;;12.38;8.82;;;;;;;16.76;92.02;100776.38;5022004;28;20057;-60
2021/08/03 04:03:54;;;;;;;11.50;9.23;;;;;;;16.49;93.76;100779.13;5037039;28;20060;-60
2021/08/03 04:06:22;;;;;;;13.13;9.00;;;;;;;16.41;94.92;100772.50;5038656;28;20048;-59
2021/08/03 04:08:50;;;;;;;11.30;8.68;;;;;;;16.80;93.45;100770.91;5054598;28;20053;-60
2021/08/03 04:11:18;;;;;;;11.38;8.27;;;;;;;16.73;93.35;100779.03;5037964;28;20041;-60
2021/08/03 04:13:51;;;;;;;13.68;9.30;;;;;;;16.84;92.65;100785.72;5054591;28;20056;-58
2021/08/03 04:16:20;;;;;;;;;;;;;;;16.91;92.28;100782.34;5038608;28;20500;-59
2021/08/03 04:18:48;;;;;;;9.93;8.15;;;;;;;16.69;92.23;100790.06;5037614;28;20399;-60
2021/08/03 04:21:15;;;;;;;11.40;7.63;;;;;;;16.82;91.64;100794.41;5055650;28;20049;-60
2021/08/03 04:23:42;;;;;;;8.25;6.82;;;;;;;16.60;91.02;100796.91;5055496;28;20052;-60
2021/08/03 04:26:10;;;;;;;10.00;7.65;;;;;;;16.73;91.62;100795.72;5055290;28;20052;-60
2021/08/03 04:28:37;;;;;;;9.15;7.00;;;;;;;16.77;90.51;100789.09;5055310;28;20440;-59
2021/08/03 04:31:05;;;;;;;11.32;7.50;;;;;;;17.08;88.94;100788.41;5055488;28;20404;-61
2021/08/03 04:33:32;;;;;;;8.13;6.28;;;;;;;17.05;88.59;100783.53;5055681;28;20404;-60
2021/08/03 04:35:59;;;;;;;7.30;5.70;;;;;;;16.53;89.68;100788.34;5054989;28;20393;-60
2021/08/03 04:38:26;;;;;;;8.93;6.32;;;;;;;16.68;90.48;100787.63;5055327;28;20045;-59
2021/08/03 04:40:54;;;;;;;8.88;6.68;;;;;;;16.59;90.61;100789.75;5055099;28;20056;-60
2021/08/03 04:43:21;;;;;;;9.85;5.88;;;;;;;16.60;90.99;100777.44;5055235;28;20045;-59
2021/08/03 04:45:48;;;;;;;8.07;6.07;;;;;;;16.56;90.63;100773.78;5054975;28;20064;-61
2021/08/03 04:48:15;;;;;;;9.13;5.80;;;;;;;16.73;89.88;100770.69;5055046;28;20055;-60
2021/08/03 04:50:43;;;;;;;7.63;5.20;;;;;;;16.76;89.23;100764.41;5055152;28;20053;-60
2021/08/03 04:53:10;;;;;;;7.03;5.05;;;;;;;17.07;88.03;100753.38;5055146;28;20052;-59
2021/08/03 04:55:37;;;;;;;7.20;5.05;;;;;;;16.92;87.76;100765.28;5056697;28;20048;-60
2021/08/03 04:58:04;;;;;;;8.35;5.65;;;;;;;17.08;87.67;100765.31;5077177;28;20040;-59
2021/08/03 05:00:32;;;;;;;7.75;5.78;;;;;;;17.30;86.14;100773.09;5076715;28;20067;-60
2021/08/03 05:02:59;;;;;;;8.40;5.93;;;;;;;17.26;86.32;100778.56;5094808;28;20491;-59
2021/08/03 05:05:27;;;;;;;11.00;6.20;;;;;;;17.26;87.02;100761.84;5077341;28;20055;-61
2021/08/03 05:07:59;;;;;;;8.57;6.78;;;;;;;17.11;88.28;100776.56;5094911;28;20400;-60
2021/08/03 05:10:28;;;;;;;9.40;6.57;;;;;;;17.25;88.02;100770.56;5077068;28;20479;-60
2021/08/03 05:12:56;;;;;;;8.07;6.30;;;;;;;17.20;87.57;100768.88;5077293;28;20416;-59
2021/08/03 05:15:23;;;;;;;9.48;6.50;;;;;;;17.17;87.88;100766.78;5076639;28;20052;-59
2021/08/03 05:17:51;;;;;;;10.13;6.30;;;;;;;17.18;88.02;100767.59;5094884;28;20048;-60
2021/08/03 05:20:18;;;;;;;9.57;6.45;;;;;;;17.07;88.06;100767.28;5095076;28;20047;-60
2021/08/03 05:22:47;;;;;;;11.25;6.93;;;;;;;17.18;87.86;100765.63;5094872;28;20056;-61
2021/08/03 05:25:15;;;;;;;10.65;6.93;;;;;;;17.15;88.11;100762.75;5094989;28;20059;-60
2021/08/03 05:27:42;;;;;;;13.23;6.40;;;;;;;16.98;88.88;100774.19;5094428;28;20050;-60
2021/08/03 05:30:10;;;;;;;8.52;5.00;;;;;;;17.04;87.76;100770.78;5094565;28;20051;-60
2021/08/03 05:32:37;;;;;;;5.78;3.80;;;;;;;17.06;85.25;100774.03;5076281;28;20503;-59
2021/08/03 05:35:06;;;;;;;4.55;2.80;;;;;;;17.05;83.41;100774.41;5071512;28;20059;-60
2021/08/03 05:37:33;;;;;;;4.10;2.78;;;;;;;16.99;81.56;100775.81;5045393;28;20146;-60
2021/08/03 05:40:02;;;;;;;4.63;3.05;;;;;;;17.05;82.30;100774.41;5055789;28;20061;-61
2021/08/03 05:42:30;;;;;;;6.00;2.40;;;;;;;17.17;81.03;100777.94;5057270;28;20063;-59
2021/08/03 05:44:57;;;;;;;4.13;2.15;;;;;;;17.19;79.00;100770.00;5076909;28;20048;-59
2021/08/03 05:47:25;;;;;;;7.15;2.20;;;;;;;17.28;79.14;100775.41;5077121;28;20060;-61
2021/08/03 05:49:52;;;;;;;3.20;2.03;;;;;;;17.25;78.05;100782.50;5049956;28;20049;-60
2021/08/03 05:52:19;;;;;;;3.40;1.70;;;;;;;17.18;78.39;100782.31;5067269;28;20053;-60
2021/08/03 05:54:47;;;;;;;4.03;1.75;;;;;;;17.26;78.03;100788.91;5064364;28;20059;-59
2021/08/03 05:57:14;;;;;;;4.13;1.77;;;;;;;17.25;77.69;100790.06;5062559;28;20048;-61
2021/08/03 05:59:41;;;;;;;3.90;1.80;;;;;;;16.96;79.78;100780.13;5082263;28;20522;-60
2021/08/03 06:02:08;;;;;;;4.13;1.60;;;;;;;17.18;80.76;100778.72;5081628;28;20624;-59
2021/08/03 06:04:36;;;;;;;5.40;1.80;;;;;;;17.54;80.49;100787.69;5079327;28;20424;-56
2021/08/03 06:07:04;;;;;;;3.72;1.60;;;;;;;17.74;77.45;100785.81;5081180;28;20056;-59
2021/08/03 06:09:32;;;;;;;3.70;1.45;;;;;;;17.52;75.97;100784.47;5035513;28;20040;-56
2021/08/03 06:12:01;;;;;;;3.67;2.13;;;;;;;17.27;77.36;100784.94;5054729;28;20075;-55
2021/08/03 06:14:40;;;;;;;8.30;2.03;;;;;;;17.55;77.86;100789.34;5029566;28;20542;-55
2021/08/03 06:17:09;;;;;;;3.17;1.88;;;;;;;17.63;75.84;100790.31;5069865;28;20378;-56
2021/08/03 06:19:57;;;;;;;3.38;1.65;;;;;;;17.18;77.99;100790.66;5072423;28;20056;-57
2021/08/03 06:22:26;;;;;;;3.30;1.73;;;;;;;17.37;76.37;100798.34;5069563;28;20523;-58
2021/08/03 06:24:54;;;;;;;5.22;2.42;;;;;;;17.34;78.49;100791.53;5085482;28;20063;-58
2021/08/03 06:27:21;;;;;;;6.70;3.40;;;;;;;17.05;80.34;100805.00;5087330;28;20058;-57
2021/08/03 06:29:49;;;;;;;5.03;2.40;;;;;;;16.37;82.67;100804.13;5085737;28;20036;-57
2021/08/03 06:32:16;;;;;;;3.92;2.42;;;;;;;16.28;85.94;100806.22;5069162;28;20059;-55
2021/08/03 06:34:44;;;;;;;3.97;2.40;;;;;;;16.53;85.99;100807.81;5062127;28;20075;-53
2021/08/03 06:37:12;;;;;;;4.28;2.33;;;;;;;16.78;84.74;100812.16;5079232;28;20055;-57
2021/08/03 06:39:41;;;;;;;4.78;2.22;;;;;;;16.47;85.41;100814.81;5077964;28;20076;-55
2021/08/03 06:42:10;;;;;;;5.57;2.38;;;;;;;16.47;84.30;100818.41;5078006;28;20048;-55
2021/08/03 06:44:44;;;;;;;2.80;1.52;;;;;;;16.71;81.90;100817.53;5080535;28;20511;-58
2021/08/03 06:47:12;;;;;;;3.03;1.52;;;;;;;16.68;81.50;100821.00;5068682;28;20074;-58
2021/08/03 06:49:42;;;;;;;4.75;1.88;;;;;;;16.59;82.49;100814.78;5062548;28;20043;-55
2021/08/03 06:52:12;;;;;;;4.88;1.67;;;;;;;16.41;84.29;100816.16;5066424;28;20427;-56
2021/08/03 06:54:41;;;;;;;3.42;1.75;;;;;;;16.75;83.23;100826.78;5087418;28;20044;-53
2021/08/03 06:57:09;;;;;;;5.38;1.80;;;;;;;17.05;81.44;100824.50;5069330;28;20052;-55
2021/08/03 06:59:46;;;;;;;5.32;2.28;;;;;;;16.98;81.74;100815.94;5087527;28;20040;-55
2021/08/03 07:02:31;;;;;;;6.75;2.10;;;;;;;17.05;81.99;100825.28;5068739;28;20113;-56
2021/08/03 07:05:08;;;;;;;6.63;2.03;;;;;;;16.91;82.31;100829.63;5065579;28;20056;-56
2021/08/03 07:07:36;;;;;;;5.40;2.10;;;;;;;16.86;84.51;100831.50;5083027;28;20043;-56
2021/08/03 07:10:06;;;;;;;6.88;2.10;;;;;;;17.05;84.00;100830.84;5084325;28;20040;-56
2021/08/03 07:12:34;;;;;;;8.77;2.70;;;;;;;17.54;82.42;100835.03;5068157;28;20495;-55
2021/08/03 07:15:02;;;;;;;10.15;2.97;;;;;;;17.46;82.32;100837.97;5069115;28;20044;-54
2021/08/03 07:17:30;;;;;;;14.20;3.08;;;;;;;17.23;83.25;100837.75;5067678;28;20048;-59
2021/08/03 07:19:58;;;;;;;12.65;2.72;;;;;;;17.41;82.37;100847.41;5068955;28;20049;-57
2021/08/03 07:22:26;;;;;;;5.80;2.90;;;;;;;17.62;81.36;100838.84;5069793;28;20052;-57
2021/08/03 07:24:56;;;;;;;6.25;2.67;;;;;;;17.38;81.28;100841.75;5065308;28;20060;-55
2021/08/03 07:27:23;;;;;;;6.20;2.65;;;;;;;17.12;81.90;100835.81;5086215;28;20044;-56
2021/08/03 07:29:50;;;;;;;12.40;3.50;;;;;;;17.69;81.08;100837.06;5066797;28;20040;-56
2021/08/03 07:32:17;;;;;;;9.65;2.45;;;;;;;17.45;80.51;100847.50;5083764;28;20561;-56
2021/08/03 07:34:45;;;;;;;5.80;2.75;;;;;;;17.56;78.30;100852.22;5084761;28;20044;-56
2021/08/03 07:37:13;;;;;;;6.15;2.33;;;;;;;18.09;77.28;100852.78;5066103;28;20804;-57
2021/08/03 07:39:40;;;;;;;5.57;2.47;;;;;;;18.49;74.65;100856.19;5066249;28;20070;-56
2021/08/03 07:42:08;;;;;;;4.78;2.42;;;;;;;18.41;73.51;100846.06;5063925;28;20048;-57
2021/08/03 07:44:36;;;;;;;5.32;2.13;;;;;;;18.29;74.44;100846.13;5083254;28;20045;-56
2021/08/03 07:47:03;;;;;;;5.18;1.88;;;;;;;18.70;71.71;100837.16;5064677;28;20052;-56
2021/08/03 07:49:31;;;;;;;4.78;2.13;;;;;;;18.74;70.50;100840.84;5062661;28;20447;-56
2021/08/03 07:51:58;;;;;;;5.03;2.05;;;;;;;17.78;74.35;100840.47;5080887;28;20059;-56
2021/08/03 07:54:25;;;;;;;4.15;2.22;;;;;;;18.33;73.57;100841.44;5065536;28;20040;-57
2021/08/03 07:56:53;;;;;;;4.78;2.40;;;;;;;18.49;73.31;100842.25;5082231;28;20060;-55
2021/08/03 07:59:20;;;;;;;6.30;2.70;;;;;;;17.98;74.85;100846.94;5082389;28;20055;-56
2021/08/03 08:01:47;;;;;;;6.22;3.10;;;;;;;17.70;77.00;100843.41;5079610;28;20048;-53
2021/08/03 08:04:15;;;;;;;6.05;2.72;;;;;;;17.89;76.56;100847.13;5079423;28;20048;-55
2021/08/03 08:06:42;;;;;;;6.22;3.20;;;;;;;17.95;76.79;100842.91;5080045;28;20048;-55
2021/08/03 08:09:17;;;;;;;9.10;3.33;;;;;;;17.74;77.28;100834.00;5063918;28;20056;-56
2021/08/03 08:11:45;;;;;;;6.35;3.00;;;;;;;17.86;76.94;100839.50;5079444;28;20518;-56
2021/08/03 08:14:12;;;;;;;4.75;2.85;;;;;;;17.81;76.81;100836.16;5084897;28;20698;-57
2021/08/03 08:16:40;;;;;;;6.60;2.72;;;;;;;18.49;73.97;100836.66;5064732;28;20052;-55
2021/08/03 08:19:07;;;;;;;7.05;3.47;;;;;;;18.06;74.46;100831.22;5081108;28;20510;-55
2021/08/03 08:21:35;;;;;;;4.75;2.58;;;;;;;18.09;75.39;100831.31;5047710;28;20053;-57
2021/08/03 08:24:03;;;;;;;9.30;3.03;;;;;;;18.42;72.71;100823.38;5081899;28;20537;-57
2021/08/03 08:26:31;;;;;;;6.00;3.00;;;;;;;18.38;72.95;100821.63;5079721;28;20414;-54
2021/08/03 08:28:58;;;;;;;5.90;2.60;;;;;;;18.04;73.06;100831.59;5081071;28;20052;-57
2021/08/03 08:31:25;;;;;;;8.27;3.47;;;;;;;17.59;75.79;100832.00;5064669;28;20036;-57
2021/08/03 08:33:53;;;;;;;8.77;3.45;;;;;;;18.00;74.35;100822.31;5078146;28;20062;-57
2021/08/03 08:36:20;;;;;;;6.35;3.20;;;;;;;17.95;73.78;100823.41;5061807;28;20404;-56
2021/08/03 08:38:47;;;;;;;10.65;3.95;;;;;;;18.04;74.19;100831.59;5059342;28;20048;-54
2021/08/03 08:41:15;;;;;;;6.13;3.00;;;;;;;18.05;72.02;100835.16;5080538;28;20048;-58
2021/08/03 08:43:42;;;;;;;9.32;2.53;;;;;;;18.57;70.98;100816.13;5080894;28;20498;-58
2021/08/03 08:46:14;;;;;;;6.40;3.13;;;;;;;18.79;69.65;100821.00;5081667;28;20052;-57
2021/08/03 08:48:42;;;;;;;4.47;2.65;;;;;;;18.59;69.86;100822.16;5047121;28;20052;-58
2021/08/03 08:51:10;;;;;;;5.35;2.35;;;;;;;18.75;67.82;100817.31;5082831;28;20407;-55
2021/08/03 08:53:37;;;;;;;5.00;2.67;;;;;;;18.63;67.90;100823.84;5081630;28;20079;-58
2021/08/03 08:56:05;;;;;;;8.90;2.75;;;;;;;18.09;69.85;100828.53;5080998;28;20052;-56
2021/08/03 08:58:34;;;;;;;3.65;2.25;;;;;;;18.38;68.21;100838.34;5080313;28;20538;-55
2021/08/03 09:01:03;;;;;;;7.70;2.60;;;;;;;18.39;67.33;100834.41;5079387;28;20056;-59
2021/08/03 09:03:32;;;;;;;3.90;2.38;;;;;;;18.68;66.42;100833.91;5079985;28;20067;-57
2021/08/03 09:06:01;;;;;;;4.85;2.47;;;;;;;18.55;67.48;100826.84;5079706;28;20075;-57
2021/08/03 09:08:37;;;;;;;7.82;3.13;;;;;;;18.61;68.48;100826.19;5062212;28;20055;-59
2021/08/03 09:11:09;;;;;;;6.03;2.90;;;;;;;19.24;66.41;100820.34;5081268;28;20112;-58
2021/08/03 09:13:52;;;;;;;4.07;2.10;;;;;;;19.37;64.53;100819.84;5079916;28;20048;-56
2021/08/03 09:16:21;;;;;;;4.40;2.38;;;;;;;19.65;63.42;100825.16;5061564;28;20036;-58
2021/08/03 09:18:49;;;;;;;4.38;2.30;;;;;;;19.99;63.06;100819.38;5081478;28;20041;-58
2021/08/03 09:21:26;;;;;;;8.40;2.35;;;;;;;20.30;61.37;100817.50;5082674;28;20059;-57
2021/08/03 09:24:01;;;;;;;7.40;2.40;;;;;;;20.35;60.50;100820.78;5064202;28;20128;-56
2021/08/03 09:26:38;;;;;;;6.28;2.35;;;;;;;19.04;63.98;100828.72;5082465;28;20048;-59
2021/08/03 09:29:10;;;;;;;4.20;2.53;;;;;;;19.46;63.63;100828.78;5082254;28;20052;-58
2021/08/03 09:31:39;;;;;;;5.55;2.40;;;;;;;20.10;61.70;100825.16;5064105;28;20048;-57
2021/08/03 09:34:11;;;;;;;8.48;2.45;;;;;;;20.44;61.08;100823.31;5082462;28;20044;-58
2021/08/03 09:36:58;;;;;;;5.63;2.30;;;;;;;20.48;58.30;100824.16;5081629;28;20056;-59
2021/08/03 09:39:37;;;;;;;5.60;2.35;;;;;;;19.75;60.43;100822.53;5064941;28;20052;-56
2021/08/03 09:42:07;;;;;;;4.93;2.35;;;;;;;20.44;59.17;100835.31;5080686;28;20044;-57
2021/08/03 09:44:36;;;;;;;3.53;2.15;;;;;;;20.17;59.01;100827.28;5080786;28;20124;-58
2021/08/03 09:47:03;;;;;;;4.73;2.47;;;;;;;20.37;59.12;100828.78;5064353;28;20059;-57
2021/08/03 09:49:38;;;;;;;3.90;2.22;;;;;;;20.30;59.54;100823.91;5080682;28;20283;-59
2021/08/03 09:52:09;;;;;;;12.35;3.00;;;;;;;19.92;60.71;100838.03;5062359;28;20403;-58
2021/08/03 09:54:36;;;;;;;4.68;2.50;;;;;;;19.35;63.80;100826.97;5079982;28;20396;-60
2021/08/03 09:57:16;;;;;;;5.78;2.55;;;;;;;19.44;64.86;100825.56;5079323;28;20067;-57
2021/08/03 09:59:43;;;;;;;6.38;3.03;;;;;;;19.18;65.46;100828.19;5080605;28;20518;-58
2021/08/03 10:02:17;;;;;;;6.03;2.45;;;;;;;19.14;65.09;100827.34;5064276;28;20435;-58
2021/08/03 10:04:49;;;;;;;5.82;2.92;;;;;;;18.84;65.79;100829.09;5082588;28;20059;-58
2021/08/03 10:07:16;;;;;;;4.70;2.30;;;;;;;19.15;64.56;100833.72;5081519;28;20052;-57
2021/08/03 10:09:45;;;;;;;3.97;2.15;;;;;;;19.00;64.33;100829.84;5077714;28;20059;-59
2021/08/03 10:12:13;;;;;;;4.90;2.53;;;;;;;19.21;64.71;100830.28;5080857;28;20044;-60
2021/08/03 10:14:40;;;;;;;7.63;2.63;;;;;;;19.08;63.50;100828.81;5081246;28;20049;-57
2021/08/03 10:17:09;;;;;;;5.28;2.78;;;;;;;19.24;64.08;100826.75;5082101;28;20054;-58
2021/08/03 10:19:37;;;;;;;7.57;4.55;;;;;;;19.69;62.62;100823.22;5047577;28;20048;-58
2021/08/03 10:22:17;;;;;;;3.92;2.60;;;;;;;19.42;62.95;100824.31;5061753;28;20641;-59
2021/08/03 10:24:53;;;;;;;5.50;2.97;;;;;;;19.23;64.32;100827.13;5080965;28;20574;-64
2021/08/03 10:27:21;;;;;;;5.55;2.80;;;;;;;19.25;64.56;100827.56;5081899;28;20052;-58
2021/08/03 10:29:59;;;;;;;4.82;3.10;;;;;;;19.08;65.01;100824.03;5079969;28;20045;-58
2021/08/03 10:32:43;;;;;;;8.32;2.90;;;;;;;19.48;64.63;100820.03;5081420;28;20052;-57
2021/08/03 10:35:15;;;;;;;12.60;7.47;;;;;;;20.01;64.15;100817.00;5080972;28;20048;-58
2021/08/03 10:37:57;;;;;;;9.52;6.80;;;;;;;20.49;62.49;100807.00;5060303;28;20057;-60
2021/08/03 10:40:43;;;;;;;9.80;6.38;;;;;;;20.82;61.16;100809.03;5078358;28;20055;-60
2021/08/03 10:43:14;;;;;;;9.63;4.80;;;;;;;20.44;60.76;100812.09;5081592;28;20060;-58
2021/08/03 10:45:42;;;;;;;6.00;3.40;;;;;;;19.60;62.50;100815.09;5081092;28;20044;-55
2021/08/03 10:48:10;;;;;;;6.75;3.50;;;;;;;19.32;64.89;100813.75;5081535;28;20426;-58
2021/08/03 10:50:38;;;;;;;5.22;2.90;;;;;;;19.56;63.60;100811.41;5062055;28;20519;-57
2021/08/03 10:53:06;;;;;;;8.55;3.55;;;;;;;19.84;62.77;100822.31;5063179;28;20558;-60
2021/08/03 10:55:44;;;;;;;7.25;4.90;;;;;;;20.07;61.47;100823.09;5080701;28;20064;-57
2021/08/03 10:58:16;;;;;;;22.08;13.05;;;;;;;19.97;61.92;100824.53;5080707;28;20051;-58
2021/08/03 11:00:44;;;;;;;6.90;4.40;;;;;;;19.72;61.43;100820.50;5062382;28;20051;-57
2021/08/03 11:03:36;;;;;;;6.53;4.53;;;;;;;20.25;60.46;100820.59;5079086;28;20048;-59
2021/08/03 11:06:06;;;;;;;10.38;6.60;;;;;;;20.49;59.67;100815.38;5066116;28;20056;-58
2021/08/03 11:08:35;;;;;;;16.60;8.73;;;;;;;20.41;58.66;100821.25;5049358;28;20056;-58
2021/08/03 11:11:07;;;;;;;17.77;11.10;;;;;;;20.82;58.73;100818.25;5082538;28;20040;-58
2021/08/03 11:13:46;;;;;;;9.32;6.45;;;;;;;20.81;60.05;100827.03;5066894;28;20055;-57
2021/08/03 11:16:34;;;;;;;8.75;6.35;;;;;;;21.02;59.18;100816.97;5047592;28;20036;-59
2021/08/03 11:19:05;;;;;;;9.57;6.97;;;;;;;21.27;57.80;100824.84;5067512;28;20052;-60
2021/08/03 11:21:42;;;;;;;8.60;3.72;;;;;;;20.62;60.71;100814.00;5084748;28;20040;-57
2021/08/03 11:24:14;;;;;;;5.15;3.50;;;;;;;21.00;60.47;100810.13;5085441;28;20056;-57
2021/08/03 11:27:02;;;;;;;13.40;10.63;;;;;;;20.95;nan;100800.03;5083623;28;20047;-59
2021/08/03 11:29:36;;;;;;;9.93;6.18;;;;;;;20.83;60.17;100807.88;5068523;28;20044;-59
2021/08/03 11:32:09;;;;;;;12.95;6.90;;;;;;;20.79;59.66;100807.00;5084395;28;20036;-57
2021/08/03 11:34:42;;;;;;;7.43;4.60;;;;;;;20.62;60.50;100810.38;5048971;28;20648;-57
2021/08/03 11:37:18;;;;;;;9.90;6.22;;;;;;;20.59;58.93;100809.13;5081472;28;20051;-55
2021/08/03 11:39:57;;;;;;;9.63;5.97;;;;;;;20.81;58.91;100805.47;5067667;28;20522;-63